Aurora State Airport Aurora US
ICAO: KUAO
IATA: UAO
Category: Medium
Scheduled Services: No

Elevation: 200 ft
TransAlt. 18000 ft.

Airport Communications:
PORTLAND APP/DEP:126
ASOS:118.525
PORTLAND CLNC DEL:119.95
CTAF/UNICOM:122.7

KUAO Zoom In..

Runways:

(A) RW 17 length 5004 ft width 100 ft
LOC 111.15 / hdg 169

(B) RW 35 length 5004 ft width 100 ft
LOC 111.15 / hdg 349

Location; KUAO
Day. 24 / Time. 01.56 Zulu
* Altimeter: 29.86
* Temperature: 10° c. 50°f.
* Wind from: 180° Speed 14 kn.
Dewpoint: 07° c.
Visibility: 10 Statute Miles.
Clouds: Broken 3800 ft.
Clouds: Broken 6000 ft.
Clouds: Overcast 7500 ft.
Conditions: Light Rain.

KUAO 240156Z 18014KT 10SM -RA BKN038 BKN060 OVC075 10/07 A2986 RMK AO2 P0000 T01000072


Wind From 180°
Speed 14 kn.

YouTube Music Video
 
jpsmedia.com for Web Design  worldairports.se 2018   terms of use